sensor_id;sensor_type;location;lat;lon;timestamp;pressure;altitude;pressure_sealevel;temperature;humidity
72585;BME280;60618;40.084;32.908;2023-04-01T00:01:13;89364.81;;;3.44;83.81
72585;BME280;60618;40.084;32.908;2023-04-01T00:03:41;89367.00;;;3.46;83.87
72585;BME280;60618;40.084;32.908;2023-04-01T00:06:11;89365.03;;;3.37;83.73
72585;BME280;60618;40.084;32.908;2023-04-01T00:08:41;89358.75;;;3.12;85.16
72585;BME280;60618;40.084;32.908;2023-04-01T00:11:08;89349.00;;;2.78;86.83
72585;BME280;60618;40.084;32.908;2023-04-01T00:13:35;89360.56;;;2.81;87.31
72585;BME280;60618;40.084;32.908;2023-04-01T00:16:02;89364.88;;;3.09;86.02
72585;BME280;60618;40.084;32.908;2023-04-01T00:18:46;89359.78;;;3.37;84.12
72585;BME280;60618;40.084;32.908;2023-04-01T00:21:13;89359.50;;;3.66;83.47
72585;BME280;60618;40.084;32.908;2023-04-01T00:23:40;89353.63;;;3.62;83.77
72585;BME280;60618;40.084;32.908;2023-04-01T00:26:07;89350.38;;;3.58;84.62
72585;BME280;60618;40.084;32.908;2023-04-01T00:28:34;89348.09;;;3.38;85.90
72585;BME280;60618;40.084;32.908;2023-04-01T00:31:07;89362.34;;;3.28;86.66
72585;BME280;60618;40.084;32.908;2023-04-01T00:33:35;89350.59;;;3.41;85.52
72585;BME280;60618;40.084;32.908;2023-04-01T00:38:39;89356.13;;;3.65;84.12
72585;BME280;60618;40.084;32.908;2023-04-01T00:41:06;89355.31;;;3.78;83.45
72585;BME280;60618;40.084;32.908;2023-04-01T00:43:34;89343.19;;;3.80;82.83
72585;BME280;60618;40.084;32.908;2023-04-01T00:46:01;89351.94;;;3.77;82.71
72585;BME280;60618;40.084;32.908;2023-04-01T00:48:31;89335.72;;;3.79;82.75
72585;BME280;60618;40.084;32.908;2023-04-01T00:51:14;89337.03;;;3.83;82.41
72585;BME280;60618;40.084;32.908;2023-04-01T00:53:47;89335.28;;;3.80;81.77
72585;BME280;60618;40.084;32.908;2023-04-01T00:56:27;89339.25;;;3.85;81.55
72585;BME280;60618;40.084;32.908;2023-04-01T00:59:02;89342.16;;;3.78;81.51
72585;BME280;60618;40.084;32.908;2023-04-01T01:01:32;89341.41;;;3.77;81.28
72585;BME280;60618;40.084;32.908;2023-04-01T01:04:00;89340.13;;;3.82;80.30
72585;BME280;60618;40.084;32.908;2023-04-01T01:07:05;89351.03;;;3.71;80.66
72585;BME280;60618;40.084;32.908;2023-04-01T01:12:45;89343.34;;;3.55;81.35
72585;BME280;60618;40.084;32.908;2023-04-01T01:15:26;89336.97;;;3.34;81.90
72585;BME280;60618;40.084;32.908;2023-04-01T01:18:16;89324.06;;;3.27;82.39
72585;BME280;60618;40.084;32.908;2023-04-01T01:21:06;89330.78;;;3.28;82.78
72585;BME280;60618;40.084;32.908;2023-04-01T01:26:51;89331.38;;;3.32;82.38
72585;BME280;60618;40.084;32.908;2023-04-01T01:29:40;89328.38;;;3.42;81.18
72585;BME280;60618;40.084;32.908;2023-04-01T01:32:48;89339.69;;;3.52;80.23
72585;BME280;60618;40.084;32.908;2023-04-01T01:38:13;89340.03;;;3.63;79.55
72585;BME280;60618;40.084;32.908;2023-04-01T01:40:43;89344.44;;;3.66;79.38
72585;BME280;60618;40.084;32.908;2023-04-01T01:43:14;89349.44;;;3.74;78.78
72585;BME280;60618;40.084;32.908;2023-04-01T01:46:06;89350.06;;;3.78;78.58
72585;BME280;60618;40.084;32.908;2023-04-01T01:48:35;89344.78;;;3.78;78.65
72585;BME280;60618;40.084;32.908;2023-04-01T01:51:06;89349.63;;;3.79;78.43
72585;BME280;60618;40.084;32.908;2023-04-01T01:53:34;89352.41;;;3.85;78.44
72585;BME280;60618;40.084;32.908;2023-04-01T01:56:02;89351.25;;;3.86;78.11
72585;BME280;60618;40.084;32.908;2023-04-01T01:58:33;89350.69;;;3.91;77.98
72585;BME280;60618;40.084;32.908;2023-04-01T02:01:07;89351.13;;;3.89;77.67
72585;BME280;60618;40.084;32.908;2023-04-01T02:03:36;89351.97;;;3.86;77.68
72585;BME280;60618;40.084;32.908;2023-04-01T02:06:07;89361.66;;;3.89;77.26
72585;BME280;60618;40.084;32.908;2023-04-01T02:08:45;89359.47;;;3.88;77.80
72585;BME280;60618;40.084;32.908;2023-04-01T02:11:16;89358.16;;;3.92;77.68
72585;BME280;60618;40.084;32.908;2023-04-01T02:14:05;89355.50;;;3.92;77.87
72585;BME280;60618;40.084;32.908;2023-04-01T02:16:38;89350.97;;;3.93;77.72
72585;BME280;60618;40.084;32.908;2023-04-01T02:19:08;89360.97;;;3.98;77.72
72585;BME280;60618;40.084;32.908;2023-04-01T02:21:37;89365.03;;;3.90;77.41
72585;BME280;60618;40.084;32.908;2023-04-01T02:24:11;89361.00;;;3.76;78.67
72585;BME280;60618;40.084;32.908;2023-04-01T02:26:40;89363.28;;;3.65;78.87
72585;BME280;60618;40.084;32.908;2023-04-01T02:29:11;89360.63;;;3.56;79.50
72585;BME280;60618;40.084;32.908;2023-04-01T02:31:38;89365.81;;;3.68;78.72
72585;BME280;60618;40.084;32.908;2023-04-01T02:34:06;89360.47;;;3.59;79.15
72585;BME280;60618;40.084;32.908;2023-04-01T02:36:35;89359.88;;;3.55;79.75
72585;BME280;60618;40.084;32.908;2023-04-01T02:39:02;89368.69;;;3.61;78.75
72585;BME280;60618;40.084;32.908;2023-04-01T02:41:29;89371.25;;;3.74;78.52
72585;BME280;60618;40.084;32.908;2023-04-01T02:43:57;89366.44;;;3.82;78.40
72585;BME280;60618;40.084;32.908;2023-04-01T02:46:24;89367.19;;;3.82;77.96
72585;BME280;60618;40.084;32.908;2023-04-01T02:48:51;89370.56;;;3.83;78.04
72585;BME280;60618;40.084;32.908;2023-04-01T02:51:18;89371.25;;;3.74;78.51
72585;BME280;60618;40.084;32.908;2023-04-01T02:53:45;89366.63;;;3.56;79.34
72585;BME280;60618;40.084;32.908;2023-04-01T02:56:12;89365.34;;;3.39;80.85
72585;BME280;60618;40.084;32.908;2023-04-01T02:58:39;89368.84;;;3.36;81.05
72585;BME280;60618;40.084;32.908;2023-04-01T03:01:05;89360.88;;;3.49;79.82
72585;BME280;60618;40.084;32.908;2023-04-01T03:03:32;89371.94;;;3.65;79.15
72585;BME280;60618;40.084;32.908;2023-04-01T03:06:08;89372.88;;;3.81;78.93
72585;BME280;60618;40.084;32.908;2023-04-01T03:08:35;89372.06;;;3.93;78.21
72585;BME280;60618;40.084;32.908;2023-04-01T03:11:02;89366.50;;;3.91;78.08
72585;BME280;60618;40.084;32.908;2023-04-01T03:13:30;89374.69;;;3.93;77.87
72585;BME280;60618;40.084;32.908;2023-04-01T03:15:57;89361.53;;;3.93;78.26
72585;BME280;60618;40.084;32.908;2023-04-01T03:18:23;89365.00;;;3.81;79.87
72585;BME280;60618;40.084;32.908;2023-04-01T03:20:50;89369.53;;;3.58;81.67
72585;BME280;60618;40.084;32.908;2023-04-01T03:23:18;89367.38;;;3.35;82.10
72585;BME280;60618;40.084;32.908;2023-04-01T03:25:45;89372.88;;;3.28;82.64
72585;BME280;60618;40.084;32.908;2023-04-01T03:28:12;89381.69;;;2.90;84.18
72585;BME280;60618;40.084;32.908;2023-04-01T03:30:39;89375.81;;;2.39;86.47
72585;BME280;60618;40.084;32.908;2023-04-01T03:33:06;89372.47;;;2.38;87.41
72585;BME280;60618;40.084;32.908;2023-04-01T03:35:33;89373.88;;;2.65;86.18
72585;BME280;60618;40.084;32.908;2023-04-01T03:38:00;89379.50;;;2.76;85.22
72585;BME280;60618;40.084;32.908;2023-04-01T03:40:27;89378.34;;;2.77;85.69
72585;BME280;60618;40.084;32.908;2023-04-01T03:42:54;89365.59;;;2.88;85.12
72585;BME280;60618;40.084;32.908;2023-04-01T03:45:21;89365.78;;;2.94;85.03
72585;BME280;60618;40.084;32.908;2023-04-01T03:47:48;89370.22;;;2.84;85.41
72585;BME280;60618;40.084;32.908;2023-04-01T03:50:15;89370.78;;;2.79;86.25
72585;BME280;60618;40.084;32.908;2023-04-01T03:52:42;89372.00;;;2.87;85.89
72585;BME280;60618;40.084;32.908;2023-04-01T03:55:09;89371.91;;;2.91;85.92
72585;BME280;60618;40.084;32.908;2023-04-01T03:57:35;89383.75;;;2.95;85.20
72585;BME280;60618;40.084;32.908;2023-04-01T04:00:03;89374.16;;;3.01;85.06
72585;BME280;60618;40.084;32.908;2023-04-01T04:02:30;89382.34;;;3.03;85.80
72585;BME280;60618;40.084;32.908;2023-04-01T04:04:57;89388.56;;;3.09;84.86
72585;BME280;60618;40.084;32.908;2023-04-01T04:07:24;89382.34;;;3.03;85.67
72585;BME280;60618;40.084;32.908;2023-04-01T04:09:51;89379.50;;;3.10;85.14
72585;BME280;60618;40.084;32.908;2023-04-01T04:12:17;89387.31;;;3.23;84.15
72585;BME280;60618;40.084;32.908;2023-04-01T04:14:44;89391.38;;;3.37;83.36
72585;BME280;60618;40.084;32.908;2023-04-01T04:17:11;89393.31;;;3.46;82.87
72585;BME280;60618;40.084;32.908;2023-04-01T04:19:38;89393.56;;;3.60;82.47
72585;BME280;60618;40.084;32.908;2023-04-01T04:22:05;89399.56;;;3.61;83.28
72585;BME280;60618;40.084;32.908;2023-04-01T04:24:34;89397.88;;;3.76;83.34
72585;BME280;60618;40.084;32.908;2023-04-01T04:27:01;89403.63;;;3.84;84.69
72585;BME280;60618;40.084;32.908;2023-04-01T04:29:29;89395.81;;;4.02;84.91
72585;BME280;60618;40.084;32.908;2023-04-01T04:31:56;89397.06;;;4.28;84.63
72585;BME280;60618;40.084;32.908;2023-04-01T04:34:23;89397.31;;;4.62;83.76
72585;BME280;60618;40.084;32.908;2023-04-01T04:36:50;89393.09;;;4.92;81.79
72585;BME280;60618;40.084;32.908;2023-04-01T04:39:16;89399.44;;;5.12;79.95
72585;BME280;60618;40.084;32.908;2023-04-01T04:41:43;89391.94;;;5.29;77.66
72585;BME280;60618;40.084;32.908;2023-04-01T04:44:10;89386.09;;;5.34;76.99
72585;BME280;60618;40.084;32.908;2023-04-01T04:46:37;89395.91;;;5.52;78.63
72585;BME280;60618;40.084;32.908;2023-04-01T04:49:04;89394.53;;;5.93;77.29
72585;BME280;60618;40.084;32.908;2023-04-01T04:51:31;89404.69;;;6.28;74.36
72585;BME280;60618;40.084;32.908;2023-04-01T04:53:58;89391.66;;;6.58;72.55
72585;BME280;60618;40.084;32.908;2023-04-01T04:56:25;89392.97;;;6.86;71.50
72585;BME280;60618;40.084;32.908;2023-04-01T04:58:52;89400.63;;;6.84;71.44
72585;BME280;60618;40.084;32.908;2023-04-01T05:01:19;89396.16;;;6.90;71.00
72585;BME280;60618;40.084;32.908;2023-04-01T05:03:47;89403.94;;;7.18;71.87
72585;BME280;60618;40.084;32.908;2023-04-01T05:06:14;89410.19;;;7.05;72.08
72585;BME280;60618;40.084;32.908;2023-04-01T05:08:43;89406.75;;;7.14;71.74
72585;BME280;60618;40.084;32.908;2023-04-01T05:11:15;89406.03;;;7.14;72.59
72585;BME280;60618;40.084;32.908;2023-04-01T05:13:43;89400.53;;;7.02;72.21
72585;BME280;60618;40.084;32.908;2023-04-01T05:16:15;89403.59;;;7.25;72.32
72585;BME280;60618;40.084;32.908;2023-04-01T05:18:42;89395.25;;;6.69;72.25
72585;BME280;60618;40.084;32.908;2023-04-01T05:21:11;89389.97;;;6.69;73.48
72585;BME280;60618;40.084;32.908;2023-04-01T05:23:38;89391.56;;;6.76;73.11
72585;BME280;60618;40.084;32.908;2023-04-01T05:26:08;89393.84;;;7.31;72.14
72585;BME280;60618;40.084;32.908;2023-04-01T05:28:35;89389.25;;;7.85;68.17
72585;BME280;60618;40.084;32.908;2023-04-01T05:31:03;89397.78;;;8.04;67.93
72585;BME280;60618;40.084;32.908;2023-04-01T05:33:31;89388.81;;;8.01;68.74
72585;BME280;60618;40.084;32.908;2023-04-01T05:36:09;89391.63;;;8.12;67.69
72585;BME280;60618;40.084;32.908;2023-04-01T05:38:37;89391.91;;;8.14;68.24
72585;BME280;60618;40.084;32.908;2023-04-01T05:41:04;89390.75;;;7.32;71.43
72585;BME280;60618;40.084;32.908;2023-04-01T05:43:31;89393.53;;;7.14;71.57
72585;BME280;60618;40.084;32.908;2023-04-01T05:45:58;89394.50;;;7.40;71.06
72585;BME280;60618;40.084;32.908;2023-04-01T05:48:24;89398.75;;;7.23;72.38
72585;BME280;60618;40.084;32.908;2023-04-01T05:50:51;89400.00;;;7.37;71.53
72585;BME280;60618;40.084;32.908;2023-04-01T05:53:18;89407.38;;;7.09;70.75
72585;BME280;60618;40.084;32.908;2023-04-01T05:55:45;89395.94;;;7.65;69.65
72585;BME280;60618;40.084;32.908;2023-04-01T05:58:12;89405.28;;;8.20;68.68
72585;BME280;60618;40.084;32.908;2023-04-01T06:00:39;89398.13;;;8.26;66.71
72585;BME280;60618;40.084;32.908;2023-04-01T06:03:05;89398.94;;;7.88;67.24
72585;BME280;60618;40.084;32.908;2023-04-01T06:05:50;89395.66;;;7.78;69.12
72585;BME280;60618;40.084;32.908;2023-04-01T06:08:20;89396.88;;;7.92;68.56
72585;BME280;60618;40.084;32.908;2023-04-01T06:14:43;89390.19;;;8.41;65.07
72585;BME280;60618;40.084;32.908;2023-04-01T06:17:48;89390.44;;;8.28;65.18
72585;BME280;60618;40.084;32.908;2023-04-01T06:23:23;89391.84;;;8.73;64.71
72585;BME280;60618;40.084;32.908;2023-04-01T06:45:31;89396.03;;;8.80;63.79
72585;BME280;60618;40.084;32.908;2023-04-01T06:53:32;89382.09;;;8.50;63.79
72585;BME280;60618;40.084;32.908;2023-04-01T06:56:06;89385.31;;;8.54;63.22
72585;BME280;60618;40.084;32.908;2023-04-01T06:58:49;89384.91;;;8.61;62.41
72585;BME280;60618;40.084;32.908;2023-04-01T07:01:23;89385.72;;;8.67;61.70
72585;BME280;60618;40.084;32.908;2023-04-01T07:04:00;89382.81;;;9.00;60.84
72585;BME280;60618;40.084;32.908;2023-04-01T07:06:36;89388.03;;;9.15;58.77
72585;BME280;60618;40.084;32.908;2023-04-01T07:09:19;89387.03;;;9.33;58.84
72585;BME280;60618;40.084;32.908;2023-04-01T07:11:47;89379.28;;;9.09;56.16
72585;BME280;60618;40.084;32.908;2023-04-01T07:14:31;89393.63;;;9.37;55.89
72585;BME280;60618;40.084;32.908;2023-04-01T07:17:06;89386.47;;;9.70;57.58
72585;BME280;60618;40.084;32.908;2023-04-01T07:22:50;89384.47;;;9.38;55.66
72585;BME280;60618;40.084;32.908;2023-04-01T07:25:27;89383.66;;;9.53;57.40
72585;BME280;60618;40.084;32.908;2023-04-01T07:28:01;89372.88;;;9.62;55.38
72585;BME280;60618;40.084;32.908;2023-04-01T07:30:46;89376.00;;;9.40;55.75
72585;BME280;60618;40.084;32.908;2023-04-01T07:48:47;89375.09;;;9.69;54.17
72585;BME280;60618;40.084;32.908;2023-04-01T07:54:30;89371.47;;;10.18;53.97
72585;BME280;60618;40.084;32.908;2023-04-01T07:57:21;89370.50;;;9.90;52.77
72585;BME280;60618;40.084;32.908;2023-04-01T08:07:50;89362.19;;;10.34;51.56
72585;BME280;60618;40.084;32.908;2023-04-01T08:10:25;89358.75;;;10.65;51.41
72585;BME280;60618;40.084;32.908;2023-04-01T08:18:44;89355.03;;;10.89;51.29
72585;BME280;60618;40.084;32.908;2023-04-01T08:21:27;89352.03;;;10.70;52.49
72585;BME280;60618;40.084;32.908;2023-04-01T08:23:57;89356.69;;;10.43;51.39
72585;BME280;60618;40.084;32.908;2023-04-01T08:29:09;89341.81;;;10.63;52.40
72585;BME280;60618;40.084;32.908;2023-04-01T08:34:39;89340.50;;;10.90;53.04
72585;BME280;60618;40.084;32.908;2023-04-01T08:37:17;89345.34;;;10.91;52.41
72585;BME280;60618;40.084;32.908;2023-04-01T08:39:46;89336.06;;;11.24;52.54
72585;BME280;60618;40.084;32.908;2023-04-01T08:45:48;89325.91;;;11.39;49.23
72585;BME280;60618;40.084;32.908;2023-04-01T08:52:03;89317.59;;;11.15;52.37
72585;BME280;60618;40.084;32.908;2023-04-01T08:54:48;89326.13;;;11.24;53.08
72585;BME280;60618;40.084;32.908;2023-04-01T08:57:45;89318.13;;;11.30;53.65
72585;BME280;60618;40.084;32.908;2023-04-01T09:00:30;89321.03;;;11.32;52.82
72585;BME280;60618;40.084;32.908;2023-04-01T09:06:05;89322.69;;;11.89;52.87
72585;BME280;60618;40.084;32.908;2023-04-01T09:14:33;89288.69;;;11.84;52.41
72585;BME280;60618;40.084;32.908;2023-04-01T09:17:32;89296.25;;;12.08;51.44
72585;BME280;60618;40.084;32.908;2023-04-01T09:25:53;89295.75;;;12.04;53.71
72585;BME280;60618;40.084;32.908;2023-04-01T09:28:35;89308.25;;;11.47;52.11
72585;BME280;60618;40.084;32.908;2023-04-01T09:31:39;89303.94;;;11.61;52.94
72585;BME280;60618;40.084;32.908;2023-04-01T09:37:06;89297.53;;;11.25;53.98
72585;BME280;60618;40.084;32.908;2023-04-01T09:40:02;89294.28;;;11.91;53.26
72585;BME280;60618;40.084;32.908;2023-04-01T09:43:28;89297.69;;;12.26;53.54
72585;BME280;60618;40.084;32.908;2023-04-01T09:59:24;89285.81;;;11.99;50.77
72585;BME280;60618;40.084;32.908;2023-04-01T10:16:07;89255.44;;;13.32;46.30
72585;BME280;60618;40.084;32.908;2023-04-01T10:27:15;89239.31;;;12.86;47.05
72585;BME280;60618;40.084;32.908;2023-04-01T10:30:02;89229.56;;;12.88;45.77
72585;BME280;60618;40.084;32.908;2023-04-01T10:41:20;89214.97;;;12.95;48.52
72585;BME280;60618;40.084;32.908;2023-04-01T10:44:24;89218.31;;;12.26;48.48
72585;BME280;60618;40.084;32.908;2023-04-01T10:53:16;89211.03;;;13.54;44.74
72585;BME280;60618;40.084;32.908;2023-04-01T11:04:24;89183.44;;;12.82;46.27
72585;BME280;60618;40.084;32.908;2023-04-01T11:15:42;89175.50;;;13.59;45.61
72585;BME280;60618;40.084;32.908;2023-04-01T11:18:47;89177.50;;;13.47;46.25
72585;BME280;60618;40.084;32.908;2023-04-01T11:24:30;89164.88;;;14.08;44.05
72585;BME280;60618;40.084;32.908;2023-04-01T11:30:28;89162.94;;;13.78;43.73
72585;BME280;60618;40.084;32.908;2023-04-01T11:33:03;89167.41;;;14.25;45.02
72585;BME280;60618;40.084;32.908;2023-04-01T11:44:09;89151.75;;;13.74;43.14
72585;BME280;60618;40.084;32.908;2023-04-01T11:50:03;89139.47;;;13.90;44.92
72585;BME280;60618;40.084;32.908;2023-04-01T11:58:26;89131.28;;;14.56;40.57
72585;BME280;60618;40.084;32.908;2023-04-01T12:06:25;89117.75;;;13.69;44.35
72585;BME280;60618;40.084;32.908;2023-04-01T12:14:42;89122.97;;;13.56;45.66
72585;BME280;60618;40.084;32.908;2023-04-01T12:23:37;89105.06;;;14.48;42.18
72585;BME280;60618;40.084;32.908;2023-04-01T12:26:35;89108.41;;;14.30;42.49
72585;BME280;60618;40.084;32.908;2023-04-01T13:14:41;89056.25;;;14.93;41.81
72585;BME280;60618;40.084;32.908;2023-04-01T13:17:36;89066.06;;;15.23;40.41
72585;BME280;60618;40.084;32.908;2023-04-01T13:23:19;89054.78;;;15.11;42.84
72585;BME280;60618;40.084;32.908;2023-04-01T13:28:43;89051.56;;;14.18;42.52
72585;BME280;60618;40.084;32.908;2023-04-01T13:34:22;89054.34;;;14.07;43.18
72585;BME280;60618;40.084;32.908;2023-04-01T13:37:03;89054.34;;;13.83;43.45
72585;BME280;60618;40.084;32.908;2023-04-01T13:42:49;89042.38;;;13.89;44.07
72585;BME280;60618;40.084;32.908;2023-04-01T13:56:34;89029.75;;;13.35;45.76
72585;BME280;60618;40.084;32.908;2023-04-01T14:15:23;89027.63;;;13.28;45.02
72585;BME280;60618;40.084;32.908;2023-04-01T14:20:33;89027.94;;;13.19;45.41
72585;BME280;60618;40.084;32.908;2023-04-01T14:23:29;89023.97;;;13.31;45.78
72585;BME280;60618;40.084;32.908;2023-04-01T14:39:22;89004.78;;;12.92;46.20
72585;BME280;60618;40.084;32.908;2023-04-01T14:47:43;89002.66;;;12.85;46.76
72585;BME280;60618;40.084;32.908;2023-04-01T14:50:18;89019.19;;;12.83;47.58
72585;BME280;60618;40.084;32.908;2023-04-01T14:52:56;89016.50;;;12.83;47.36
72585;BME280;60618;40.084;32.908;2023-04-01T14:55:44;89014.13;;;12.79;46.77
72585;BME280;60618;40.084;32.908;2023-04-01T14:58:16;89005.88;;;12.77;46.71
72585;BME280;60618;40.084;32.908;2023-04-01T15:01:00;89005.88;;;12.77;46.49
72585;BME280;60618;40.084;32.908;2023-04-01T15:12:14;88992.13;;;12.62;48.39
72585;BME280;60618;40.084;32.908;2023-04-01T15:18:09;89000.16;;;12.62;49.21
72585;BME280;60618;40.084;32.908;2023-04-01T15:20:56;88999.69;;;12.58;49.28
72585;BME280;60618;40.084;32.908;2023-04-01T15:23:37;89000.66;;;12.55;50.09
72585;BME280;60618;40.084;32.908;2023-04-01T15:32:14;89011.88;;;12.48;50.55
72585;BME280;60618;40.084;32.908;2023-04-01T15:35:00;89007.31;;;12.43;50.15
72585;BME280;60618;40.084;32.908;2023-04-01T15:37:44;88998.06;;;12.44;49.88
72585;BME280;60618;40.084;32.908;2023-04-01T15:40:40;88994.69;;;12.38;50.40
72585;BME280;60618;40.084;32.908;2023-04-01T15:44:24;88989.66;;;12.29;51.31
72585;BME280;60618;40.084;32.908;2023-04-01T16:03:41;88977.16;;;12.01;51.08
72585;BME280;60618;40.084;32.908;2023-04-01T16:12:00;88974.06;;;11.86;50.88
72585;BME280;60618;40.084;32.908;2023-04-01T16:20:02;88981.13;;;11.83;50.94
72585;BME280;60618;40.084;32.908;2023-04-01T16:25:39;88969.97;;;11.85;50.51
72585;BME280;60618;40.084;32.908;2023-04-01T16:31:32;88969.50;;;11.81;51.35
72585;BME280;60618;40.084;32.908;2023-04-01T16:34:16;88966.56;;;11.79;51.44
72585;BME280;60618;40.084;32.908;2023-04-01T16:47:30;88976.81;;;11.69;51.92
72585;BME280;60618;40.084;32.908;2023-04-01T16:55:48;88993.50;;;11.75;52.28
72585;BME280;60618;40.084;32.908;2023-04-01T16:58:37;88986.97;;;11.82;51.87
72585;BME280;60618;40.084;32.908;2023-04-01T17:01:26;88981.38;;;11.74;51.78
72585;BME280;60618;40.084;32.908;2023-04-01T17:04:06;88981.41;;;11.69;52.78
72585;BME280;60618;40.084;32.908;2023-04-01T17:15:16;88976.09;;;11.57;53.02
72585;BME280;60618;40.084;32.908;2023-04-01T17:20:33;88963.78;;;11.43;54.35
72585;BME280;60618;40.084;32.908;2023-04-01T17:36:56;88974.72;;;12.03;53.07
72585;BME280;60618;40.084;32.908;2023-04-01T17:42:16;88965.47;;;12.15;52.83
72585;BME280;60618;40.084;32.908;2023-04-01T17:44:55;88959.84;;;12.19;52.66
72585;BME280;60618;40.084;32.908;2023-04-01T17:47:47;88967.63;;;12.17;52.97
72585;BME280;60618;40.084;32.908;2023-04-01T17:50:28;88961.81;;;12.13;53.11
72585;BME280;60618;40.084;32.908;2023-04-01T17:53:11;88964.97;;;12.17;52.63
72585;BME280;60618;40.084;32.908;2023-04-01T18:04:11;88956.25;;;11.53;53.49
72585;BME280;60618;40.084;32.908;2023-04-01T18:06:58;88956.25;;;11.47;54.18
72585;BME280;60618;40.084;32.908;2023-04-01T18:15:37;88963.47;;;11.69;53.80
72585;BME280;60618;40.084;32.908;2023-04-01T18:20:54;88970.38;;;12.00;53.27
72585;BME280;60618;40.084;32.908;2023-04-01T18:23:47;88969.22;;;11.96;52.95
72585;BME280;60618;40.084;32.908;2023-04-01T18:26:33;88967.13;;;12.18;52.15
72585;BME280;60618;40.084;32.908;2023-04-01T18:32:12;88966.56;;;11.79;52.63
72585;BME280;60618;40.084;32.908;2023-04-01T18:34:57;88962.94;;;11.82;52.80
72585;BME280;60618;40.084;32.908;2023-04-01T18:37:42;88955.38;;;11.97;52.78
72585;BME280;60618;40.084;32.908;2023-04-01T18:40:36;88966.03;;;11.97;53.34
72585;BME280;60618;40.084;32.908;2023-04-01T18:46:01;88957.78;;;11.95;52.68
72585;BME280;60618;40.084;32.908;2023-04-01T18:48:55;88956.38;;;11.83;53.68
72585;BME280;60618;40.084;32.908;2023-04-01T18:54:30;88953.50;;;11.81;53.86
72585;BME280;60618;40.084;32.908;2023-04-01T18:57:18;88955.91;;;11.84;53.57
72585;BME280;60618;40.084;32.908;2023-04-01T18:59:57;88954.94;;;11.82;53.80
72585;BME280;60618;40.084;32.908;2023-04-01T19:02:48;88964.16;;;11.81;53.81
72585;BME280;60618;40.084;32.908;2023-04-01T19:05:36;88969.97;;;11.74;53.81
72585;BME280;60618;40.084;32.908;2023-04-01T19:08:31;88958.31;;;11.77;53.58
72585;BME280;60618;40.084;32.908;2023-04-01T19:13:37;88956.66;;;11.74;53.77
72585;BME280;60618;40.084;32.908;2023-04-01T19:21:44;88962.31;;;11.53;53.98
72585;BME280;60618;40.084;32.908;2023-04-01T19:35:49;88968.47;;;10.92;55.81
72585;BME280;60618;40.084;32.908;2023-04-01T19:38:28;88969.22;;;10.65;57.67
72585;BME280;60618;40.084;32.908;2023-04-01T19:41:08;88970.19;;;10.62;57.77
72585;BME280;60618;40.084;32.908;2023-04-01T19:46:48;88968.47;;;10.59;57.45
72585;BME280;60618;40.084;32.908;2023-04-01T19:52:28;88960.25;;;10.45;58.63
72585;BME280;60618;40.084;32.908;2023-04-01T20:00:37;88972.34;;;10.35;58.51
72585;BME280;60618;40.084;32.908;2023-04-01T20:11:54;88962.91;;;10.45;58.01
72585;BME280;60618;40.084;32.908;2023-04-01T20:19:34;88956.63;;;10.60;57.52
72585;BME280;60618;40.084;32.908;2023-04-01T20:22:05;88965.59;;;10.73;57.40
72585;BME280;60618;40.084;32.908;2023-04-01T20:24:41;88965.81;;;10.59;57.02
72585;BME280;60618;40.084;32.908;2023-04-01T20:30:12;88964.38;;;10.58;57.18
72585;BME280;60618;40.084;32.908;2023-04-01T20:53:04;88963.25;;;9.82;59.18
72585;BME280;60618;40.084;32.908;2023-04-01T20:56:00;88953.59;;;9.85;58.97
72585;BME280;60618;40.084;32.908;2023-04-01T21:01:44;88962.81;;;9.89;59.28
72585;BME280;60618;40.084;32.908;2023-04-01T21:18:49;88943.69;;;9.80;60.04
72585;BME280;60618;40.084;32.908;2023-04-01T21:21:36;88952.38;;;9.80;60.61
72585;BME280;60618;40.084;32.908;2023-04-01T21:26:48;88949.72;;;9.80;61.00
72585;BME280;60618;40.084;32.908;2023-04-01T21:34:55;88948.94;;;9.68;60.97
72585;BME280;60618;40.084;32.908;2023-04-01T21:37:53;88939.00;;;9.58;61.35
72585;BME280;60618;40.084;32.908;2023-04-01T21:41:06;88953.25;;;9.60;61.79
72585;BME280;60618;40.084;32.908;2023-04-01T21:49:36;88955.16;;;9.49;61.91
72585;BME280;60618;40.084;32.908;2023-04-01T21:52:38;88952.75;;;9.45;62.34
72585;BME280;60618;40.084;32.908;2023-04-01T22:14:18;88947.00;;;9.09;64.22
72585;BME280;60618;40.084;32.908;2023-04-01T22:17:21;88947.00;;;9.09;64.51
72585;BME280;60618;40.084;32.908;2023-04-01T22:19:52;88954.97;;;9.09;64.40
72585;BME280;60618;40.084;32.908;2023-04-01T22:25:42;88953.75;;;9.05;64.22
72585;BME280;60618;40.084;32.908;2023-04-01T22:28:18;88950.34;;;9.04;64.25
72585;BME280;60618;40.084;32.908;2023-04-01T22:30:54;88946.22;;;8.98;64.76
72585;BME280;60618;40.084;32.908;2023-04-01T22:39:04;88947.34;;;8.86;65.64
72585;BME280;60618;40.084;32.908;2023-04-01T22:44:42;88937.41;;;8.80;65.80
72585;BME280;60618;40.084;32.908;2023-04-01T22:47:45;88941.03;;;8.77;66.20
72585;BME280;60618;40.084;32.908;2023-04-01T22:50:30;88943.69;;;8.77;65.80
72585;BME280;60618;40.084;32.908;2023-04-01T22:55:57;88953.88;;;8.85;65.50
72585;BME280;60618;40.084;32.908;2023-04-01T22:58:42;88955.56;;;8.88;65.78
72585;BME280;60618;40.084;32.908;2023-04-01T23:01:25;88958.94;;;8.82;66.20
72585;BME280;60618;40.084;32.908;2023-04-01T23:03:56;88964.44;;;8.79;65.72
72585;BME280;60618;40.084;32.908;2023-04-01T23:06:32;88960.09;;;8.76;66.56
72585;BME280;60618;40.084;32.908;2023-04-01T23:09:34;88958.63;;;8.75;66.63
72585;BME280;60618;40.084;32.908;2023-04-01T23:12:06;88956.19;;;8.71;66.24
72585;BME280;60618;40.084;32.908;2023-04-01T23:14:54;88954.22;;;8.66;66.72
72585;BME280;60618;40.084;32.908;2023-04-01T23:17:44;88950.97;;;8.51;67.51
72585;BME280;60618;40.084;32.908;2023-04-01T23:23:29;88944.34;;;8.35;68.02
72585;BME280;60618;40.084;32.908;2023-04-01T23:28:49;88959.34;;;8.38;68.32